Portada
METAR-TAF:

METAR-TAF

Aeroports :

Lusaka, Zàmbia

latitud: 15-19-51S, longitud: 028-27-09E, altitud: 1152 m

METAR: manca

Hora: 00:22 (22:22 UTC)

Pronòstic

L'informe es va fer fa 12 hores i 22 minuts, a les 10:00 UTC
Pronòstic vàlid del 23 a les 12 UTC al 24 a les 18 UTC
Vent 10 kt del Est
Visibilitat 10 km o més
Núvols disperses a una alçada de 4000 ft
A partir de les 23 a les 2000 UTC
Vent 10 kt del Est/Sud-Est
Visibilitat 10 km o més
sense núvols per sota de 1500 mi sense presència de cumulonimbus.
Evolucionant progressivament
l' 23 a les 23 UTC al 24 a les 01 UTC
Vent 10 kt del Est
Visibilitat 10 km o més
Núvols disperses a una alçada de 1000 ft
Evolucionant progressivament
l' 24 a les 10 UTC al 24 a les 12 UTC
Vent 5 kt del Est
Visibilitat 10 km o més
Cel ennuvolat a una alçada de 3000 ft

TAF: FLKK 231000Z 2312/2418 09010KT 9999 SCT040 FM232000 11010KT CAVOK BECMG 2323/2401 09010KT 9999 SCT010 BECMG 2410/2412 09005KT 9999 BKN030

Observacions i pronòstics meteorològics de més de 4000 aeroports (METAR i TAF).

Les estacions disponibles són els punts grocs i vermells al mapa.

Posi el ratolí al punt desitjat per veure el nom de l'estació.

Feu clic per veure les observacions i els pronòstics meteorològics.

Per canviar el mapa: feu clic els botons verds amb una creu de color negre per apropar; al botó verd amb un guió per allunyar la imatge; o en les fletxes verdes per a mapes adjacents.


METAR-TAF: